sensor_id;sensor_type;location;lat;lon;timestamp;P1;durP1;ratioP1;P2;durP2;ratioP2
52208;SDS011;38507;53.132;6.394;2023-04-15T00:00:58;13.50;;;3.88;;
52208;SDS011;38507;53.132;6.394;2023-04-15T00:03:23;12.82;;;3.38;;
52208;SDS011;38507;53.132;6.394;2023-04-15T00:05:49;7.57;;;3.55;;
52208;SDS011;38507;53.132;6.394;2023-04-15T00:08:16;11.32;;;3.75;;
52208;SDS011;38507;53.132;6.394;2023-04-15T00:10:42;11.02;;;3.83;;
52208;SDS011;38507;53.132;6.394;2023-04-15T00:13:10;9.48;;;4.50;;
52208;SDS011;38507;53.132;6.394;2023-04-15T00:15:36;10.43;;;3.80;;
52208;SDS011;38507;53.132;6.394;2023-04-15T00:18:02;7.85;;;3.35;;
52208;SDS011;38507;53.132;6.394;2023-04-15T00:20:28;8.82;;;3.88;;
52208;SDS011;38507;53.132;6.394;2023-04-15T00:22:54;11.15;;;4.28;;
52208;SDS011;38507;53.132;6.394;2023-04-15T00:25:19;15.63;;;3.95;;
52208;SDS011;38507;53.132;6.394;2023-04-15T00:27:45;14.77;;;4.82;;
52208;SDS011;38507;53.132;6.394;2023-04-15T00:30:10;15.70;;;4.53;;
52208;SDS011;38507;53.132;6.394;2023-04-15T00:32:36;11.60;;;4.25;;
52208;SDS011;38507;53.132;6.394;2023-04-15T00:35:02;12.35;;;4.47;;
52208;SDS011;38507;53.132;6.394;2023-04-15T00:37:28;12.65;;;4.63;;
52208;SDS011;38507;53.132;6.394;2023-04-15T00:39:54;14.02;;;4.82;;
52208;SDS011;38507;53.132;6.394;2023-04-15T00:42:20;8.27;;;4.22;;
52208;SDS011;38507;53.132;6.394;2023-04-15T00:44:46;16.30;;;5.30;;
52208;SDS011;38507;53.132;6.394;2023-04-15T00:47:11;10.77;;;5.60;;
52208;SDS011;38507;53.132;6.394;2023-04-15T00:49:38;10.98;;;5.30;;
52208;SDS011;38507;53.132;6.394;2023-04-15T00:52:04;14.90;;;6.30;;
52208;SDS011;38507;53.132;6.394;2023-04-15T00:54:29;15.60;;;5.97;;
52208;SDS011;38507;53.132;6.394;2023-04-15T00:56:55;9.30;;;5.40;;
52208;SDS011;38507;53.132;6.394;2023-04-15T00:59:22;13.88;;;5.97;;
52208;SDS011;38507;53.132;6.394;2023-04-15T01:01:48;14.15;;;5.93;;
52208;SDS011;38507;53.132;6.394;2023-04-15T01:04:14;16.50;;;6.15;;
52208;SDS011;38507;53.132;6.394;2023-04-15T01:06:40;12.60;;;6.38;;
52208;SDS011;38507;53.132;6.394;2023-04-15T01:09:06;11.15;;;5.43;;
52208;SDS011;38507;53.132;6.394;2023-04-15T01:11:31;17.15;;;6.10;;
52208;SDS011;38507;53.132;6.394;2023-04-15T01:13:58;12.65;;;6.43;;
52208;SDS011;38507;53.132;6.394;2023-04-15T01:16:24;12.52;;;6.20;;
52208;SDS011;38507;53.132;6.394;2023-04-15T01:18:51;11.75;;;6.50;;
52208;SDS011;38507;53.132;6.394;2023-04-15T01:21:17;14.88;;;7.00;;
52208;SDS011;38507;53.132;6.394;2023-04-15T01:23:44;13.15;;;6.55;;
52208;SDS011;38507;53.132;6.394;2023-04-15T01:26:12;13.85;;;6.82;;
52208;SDS011;38507;53.132;6.394;2023-04-15T01:28:38;14.35;;;7.30;;
52208;SDS011;38507;53.132;6.394;2023-04-15T01:31:07;14.25;;;6.80;;
52208;SDS011;38507;53.132;6.394;2023-04-15T01:33:34;13.23;;;7.35;;
52208;SDS011;38507;53.132;6.394;2023-04-15T01:36:00;15.40;;;8.25;;
52208;SDS011;38507;53.132;6.394;2023-04-15T01:38:27;12.23;;;7.15;;
52208;SDS011;38507;53.132;6.394;2023-04-15T01:40:54;18.52;;;8.10;;
52208;SDS011;38507;53.132;6.394;2023-04-15T01:43:20;20.42;;;8.05;;
52208;SDS011;38507;53.132;6.394;2023-04-15T01:45:46;13.73;;;8.00;;
52208;SDS011;38507;53.132;6.394;2023-04-15T01:48:11;13.32;;;7.40;;
52208;SDS011;38507;53.132;6.394;2023-04-15T01:50:37;15.88;;;8.30;;
52208;SDS011;38507;53.132;6.394;2023-04-15T01:53:03;17.60;;;7.88;;
52208;SDS011;38507;53.132;6.394;2023-04-15T01:55:28;14.10;;;8.15;;
52208;SDS011;38507;53.132;6.394;2023-04-15T01:57:55;15.93;;;7.95;;
52208;SDS011;38507;53.132;6.394;2023-04-15T02:00:20;14.80;;;8.13;;
52208;SDS011;38507;53.132;6.394;2023-04-15T02:02:47;11.25;;;7.53;;
52208;SDS011;38507;53.132;6.394;2023-04-15T02:05:13;14.68;;;8.02;;
52208;SDS011;38507;53.132;6.394;2023-04-15T02:07:40;15.27;;;8.00;;
52208;SDS011;38507;53.132;6.394;2023-04-15T02:10:09;14.35;;;7.45;;
52208;SDS011;38507;53.132;6.394;2023-04-15T02:12:37;18.42;;;8.50;;
52208;SDS011;38507;53.132;6.394;2023-04-15T02:15:03;12.25;;;7.55;;
52208;SDS011;38507;53.132;6.394;2023-04-15T02:17:29;10.55;;;7.25;;
52208;SDS011;38507;53.132;6.394;2023-04-15T02:19:59;11.95;;;8.05;;
52208;SDS011;38507;53.132;6.394;2023-04-15T02:22:25;13.70;;;8.00;;
52208;SDS011;38507;53.132;6.394;2023-04-15T02:24:51;17.00;;;7.68;;
52208;SDS011;38507;53.132;6.394;2023-04-15T02:27:16;12.02;;;8.00;;
52208;SDS011;38507;53.132;6.394;2023-04-15T02:29:45;15.13;;;7.50;;
52208;SDS011;38507;53.132;6.394;2023-04-15T02:32:13;13.93;;;7.55;;
52208;SDS011;38507;53.132;6.394;2023-04-15T02:34:39;17.98;;;8.20;;
52208;SDS011;38507;53.132;6.394;2023-04-15T02:37:07;11.02;;;7.35;;
52208;SDS011;38507;53.132;6.394;2023-04-15T02:39:33;12.60;;;7.68;;
52208;SDS011;38507;53.132;6.394;2023-04-15T02:41:58;12.80;;;8.05;;
52208;SDS011;38507;53.132;6.394;2023-04-15T02:44:25;14.27;;;8.75;;
52208;SDS011;38507;53.132;6.394;2023-04-15T02:46:51;11.63;;;7.95;;
52208;SDS011;38507;53.132;6.394;2023-04-15T02:49:21;13.15;;;8.30;;
52208;SDS011;38507;53.132;6.394;2023-04-15T02:51:47;14.25;;;8.85;;
52208;SDS011;38507;53.132;6.394;2023-04-15T02:54:16;15.07;;;8.20;;
52208;SDS011;38507;53.132;6.394;2023-04-15T02:56:43;13.98;;;9.27;;
52208;SDS011;38507;53.132;6.394;2023-04-15T02:59:09;13.60;;;8.23;;
52208;SDS011;38507;53.132;6.394;2023-04-15T03:01:36;15.10;;;8.13;;
52208;SDS011;38507;53.132;6.394;2023-04-15T03:04:01;14.32;;;8.73;;
52208;SDS011;38507;53.132;6.394;2023-04-15T03:06:27;16.38;;;8.32;;
52208;SDS011;38507;53.132;6.394;2023-04-15T03:08:53;11.80;;;8.10;;
52208;SDS011;38507;53.132;6.394;2023-04-15T03:11:18;12.95;;;7.88;;
52208;SDS011;38507;53.132;6.394;2023-04-15T03:13:45;15.18;;;8.70;;
52208;SDS011;38507;53.132;6.394;2023-04-15T03:16:11;13.98;;;8.82;;
52208;SDS011;38507;53.132;6.394;2023-04-15T03:18:37;15.65;;;8.85;;
52208;SDS011;38507;53.132;6.394;2023-04-15T03:21:02;15.45;;;8.80;;
52208;SDS011;38507;53.132;6.394;2023-04-15T03:23:29;14.02;;;7.78;;
52208;SDS011;38507;53.132;6.394;2023-04-15T03:25:55;13.68;;;8.60;;
52208;SDS011;38507;53.132;6.394;2023-04-15T03:28:22;15.07;;;8.82;;
52208;SDS011;38507;53.132;6.394;2023-04-15T03:30:48;13.48;;;8.68;;
52208;SDS011;38507;53.132;6.394;2023-04-15T03:33:13;11.73;;;8.13;;
52208;SDS011;38507;53.132;6.394;2023-04-15T03:35:39;11.73;;;7.90;;
52208;SDS011;38507;53.132;6.394;2023-04-15T03:38:05;12.82;;;8.85;;
52208;SDS011;38507;53.132;6.394;2023-04-15T03:40:31;14.20;;;8.85;;
52208;SDS011;38507;53.132;6.394;2023-04-15T03:42:56;12.35;;;8.20;;
52208;SDS011;38507;53.132;6.394;2023-04-15T03:45:22;14.98;;;8.80;;
52208;SDS011;38507;53.132;6.394;2023-04-15T03:47:48;14.40;;;9.02;;
52208;SDS011;38507;53.132;6.394;2023-04-15T03:50:13;20.60;;;10.27;;
52208;SDS011;38507;53.132;6.394;2023-04-15T03:52:39;12.48;;;8.98;;
52208;SDS011;38507;53.132;6.394;2023-04-15T03:55:05;12.63;;;8.60;;
52208;SDS011;38507;53.132;6.394;2023-04-15T03:57:32;13.75;;;8.57;;
52208;SDS011;38507;53.132;6.394;2023-04-15T04:00:02;15.10;;;9.45;;
52208;SDS011;38507;53.132;6.394;2023-04-15T04:02:28;17.02;;;10.48;;
52208;SDS011;38507;53.132;6.394;2023-04-15T04:04:54;18.48;;;11.27;;
52208;SDS011;38507;53.132;6.394;2023-04-15T04:07:21;17.45;;;11.38;;
52208;SDS011;38507;53.132;6.394;2023-04-15T04:09:48;19.45;;;10.93;;
52208;SDS011;38507;53.132;6.394;2023-04-15T04:12:13;18.52;;;11.00;;
52208;SDS011;38507;53.132;6.394;2023-04-15T04:14:39;19.83;;;11.73;;
52208;SDS011;38507;53.132;6.394;2023-04-15T04:17:05;18.45;;;11.15;;
52208;SDS011;38507;53.132;6.394;2023-04-15T04:19:31;14.82;;;10.48;;
52208;SDS011;38507;53.132;6.394;2023-04-15T04:21:56;18.10;;;11.27;;
52208;SDS011;38507;53.132;6.394;2023-04-15T04:24:22;15.73;;;10.50;;
52208;SDS011;38507;53.132;6.394;2023-04-15T04:26:48;16.83;;;10.73;;
52208;SDS011;38507;53.132;6.394;2023-04-15T04:29:13;16.63;;;10.52;;
52208;SDS011;38507;53.132;6.394;2023-04-15T04:31:39;17.80;;;11.60;;
52208;SDS011;38507;53.132;6.394;2023-04-15T04:34:05;18.17;;;11.00;;
52208;SDS011;38507;53.132;6.394;2023-04-15T04:36:31;19.80;;;12.27;;
52208;SDS011;38507;53.132;6.394;2023-04-15T04:38:57;21.52;;;12.68;;
52208;SDS011;38507;53.132;6.394;2023-04-15T04:41:23;17.85;;;11.10;;
52208;SDS011;38507;53.132;6.394;2023-04-15T04:43:48;18.67;;;10.95;;
52208;SDS011;38507;53.132;6.394;2023-04-15T04:46:14;20.88;;;11.82;;
52208;SDS011;38507;53.132;6.394;2023-04-15T04:48:39;16.35;;;11.15;;
52208;SDS011;38507;53.132;6.394;2023-04-15T04:51:05;18.05;;;10.93;;
52208;SDS011;38507;53.132;6.394;2023-04-15T04:53:32;17.60;;;10.75;;
52208;SDS011;38507;53.132;6.394;2023-04-15T04:55:58;15.77;;;10.70;;
52208;SDS011;38507;53.132;6.394;2023-04-15T04:58:23;15.52;;;10.88;;
52208;SDS011;38507;53.132;6.394;2023-04-15T05:00:49;15.68;;;10.50;;
52208;SDS011;38507;53.132;6.394;2023-04-15T05:03:15;17.25;;;10.48;;
52208;SDS011;38507;53.132;6.394;2023-04-15T05:05:41;16.70;;;10.20;;
52208;SDS011;38507;53.132;6.394;2023-04-15T05:08:07;14.32;;;9.68;;
52208;SDS011;38507;53.132;6.394;2023-04-15T05:10:33;16.45;;;10.30;;
52208;SDS011;38507;53.132;6.394;2023-04-15T05:12:58;16.38;;;9.50;;
52208;SDS011;38507;53.132;6.394;2023-04-15T05:15:24;16.48;;;10.88;;
52208;SDS011;38507;53.132;6.394;2023-04-15T05:17:50;14.63;;;9.70;;
52208;SDS011;38507;53.132;6.394;2023-04-15T05:20:16;14.65;;;9.68;;
52208;SDS011;38507;53.132;6.394;2023-04-15T05:22:42;16.35;;;9.45;;
52208;SDS011;38507;53.132;6.394;2023-04-15T05:25:07;16.17;;;9.85;;
52208;SDS011;38507;53.132;6.394;2023-04-15T05:27:33;13.65;;;9.55;;
52208;SDS011;38507;53.132;6.394;2023-04-15T05:30:00;15.15;;;10.10;;
52208;SDS011;38507;53.132;6.394;2023-04-15T05:32:25;16.20;;;10.57;;
52208;SDS011;38507;53.132;6.394;2023-04-15T05:34:51;19.52;;;11.70;;
52208;SDS011;38507;53.132;6.394;2023-04-15T05:37:17;19.92;;;11.52;;
52208;SDS011;38507;53.132;6.394;2023-04-15T05:39:45;18.15;;;12.18;;
52208;SDS011;38507;53.132;6.394;2023-04-15T05:42:10;16.77;;;11.13;;
52208;SDS011;38507;53.132;6.394;2023-04-15T05:44:36;20.30;;;13.18;;
52208;SDS011;38507;53.132;6.394;2023-04-15T05:47:02;20.52;;;12.50;;
52208;SDS011;38507;53.132;6.394;2023-04-15T05:49:28;22.08;;;12.77;;
52208;SDS011;38507;53.132;6.394;2023-04-15T05:51:53;20.50;;;12.38;;
52208;SDS011;38507;53.132;6.394;2023-04-15T05:54:19;18.15;;;11.85;;
52208;SDS011;38507;53.132;6.394;2023-04-15T05:56:47;17.58;;;11.63;;
52208;SDS011;38507;53.132;6.394;2023-04-15T05:59:13;18.63;;;12.23;;
52208;SDS011;38507;53.132;6.394;2023-04-15T06:01:38;19.05;;;11.63;;
52208;SDS011;38507;53.132;6.394;2023-04-15T06:04:05;20.52;;;12.10;;
52208;SDS011;38507;53.132;6.394;2023-04-15T06:06:31;18.65;;;11.68;;
52208;SDS011;38507;53.132;6.394;2023-04-15T06:08:57;15.15;;;10.85;;
52208;SDS011;38507;53.132;6.394;2023-04-15T06:11:23;17.67;;;10.95;;
52208;SDS011;38507;53.132;6.394;2023-04-15T06:13:48;20.55;;;12.52;;
52208;SDS011;38507;53.132;6.394;2023-04-15T06:16:14;19.75;;;12.20;;
52208;SDS011;38507;53.132;6.394;2023-04-15T06:18:40;20.15;;;12.43;;
52208;SDS011;38507;53.132;6.394;2023-04-15T06:21:05;18.42;;;12.20;;
52208;SDS011;38507;53.132;6.394;2023-04-15T06:23:35;20.13;;;12.27;;
52208;SDS011;38507;53.132;6.394;2023-04-15T06:26:01;19.05;;;11.50;;
52208;SDS011;38507;53.132;6.394;2023-04-15T06:28:27;20.23;;;11.80;;
52208;SDS011;38507;53.132;6.394;2023-04-15T06:30:53;21.08;;;13.45;;
52208;SDS011;38507;53.132;6.394;2023-04-15T06:33:19;20.08;;;12.30;;
52208;SDS011;38507;53.132;6.394;2023-04-15T06:35:45;21.35;;;13.23;;
52208;SDS011;38507;53.132;6.394;2023-04-15T06:38:11;21.40;;;12.50;;
52208;SDS011;38507;53.132;6.394;2023-04-15T06:40:38;20.10;;;12.30;;
52208;SDS011;38507;53.132;6.394;2023-04-15T06:43:04;18.23;;;11.93;;
52208;SDS011;38507;53.132;6.394;2023-04-15T06:45:29;22.02;;;12.50;;
52208;SDS011;38507;53.132;6.394;2023-04-15T06:47:56;18.80;;;11.75;;
52208;SDS011;38507;53.132;6.394;2023-04-15T06:50:21;17.70;;;12.18;;
52208;SDS011;38507;53.132;6.394;2023-04-15T06:52:47;21.83;;;12.20;;
52208;SDS011;38507;53.132;6.394;2023-04-15T06:55:13;17.17;;;11.50;;
52208;SDS011;38507;53.132;6.394;2023-04-15T06:57:39;15.55;;;10.27;;
52208;SDS011;38507;53.132;6.394;2023-04-15T07:00:05;18.35;;;11.55;;
52208;SDS011;38507;53.132;6.394;2023-04-15T07:02:31;16.80;;;10.55;;
52208;SDS011;38507;53.132;6.394;2023-04-15T07:05:00;23.10;;;12.63;;
52208;SDS011;38507;53.132;6.394;2023-04-15T07:07:26;17.92;;;11.38;;
52208;SDS011;38507;53.132;6.394;2023-04-15T07:09:51;20.55;;;11.77;;
52208;SDS011;38507;53.132;6.394;2023-04-15T07:12:18;19.13;;;12.20;;
52208;SDS011;38507;53.132;6.394;2023-04-15T07:14:43;19.05;;;11.30;;
52208;SDS011;38507;53.132;6.394;2023-04-15T07:17:09;18.58;;;12.02;;
52208;SDS011;38507;53.132;6.394;2023-04-15T07:19:36;17.98;;;11.27;;
52208;SDS011;38507;53.132;6.394;2023-04-15T07:22:02;20.48;;;11.00;;
52208;SDS011;38507;53.132;6.394;2023-04-15T07:24:27;17.00;;;9.85;;
52208;SDS011;38507;53.132;6.394;2023-04-15T07:26:54;16.45;;;9.38;;
52208;SDS011;38507;53.132;6.394;2023-04-15T07:29:23;13.80;;;8.60;;
52208;SDS011;38507;53.132;6.394;2023-04-15T07:31:49;16.65;;;8.23;;
52208;SDS011;38507;53.132;6.394;2023-04-15T07:34:15;14.32;;;7.30;;
52208;SDS011;38507;53.132;6.394;2023-04-15T07:36:41;11.10;;;6.97;;
52208;SDS011;38507;53.132;6.394;2023-04-15T07:39:07;11.95;;;7.00;;
52208;SDS011;38507;53.132;6.394;2023-04-15T07:41:33;14.25;;;6.88;;
52208;SDS011;38507;53.132;6.394;2023-04-15T07:43:58;11.40;;;7.35;;
52208;SDS011;38507;53.132;6.394;2023-04-15T07:46:24;13.52;;;7.43;;
52208;SDS011;38507;53.132;6.394;2023-04-15T07:48:51;11.55;;;6.72;;
52208;SDS011;38507;53.132;6.394;2023-04-15T07:51:18;12.43;;;6.47;;
52208;SDS011;38507;53.132;6.394;2023-04-15T07:53:45;11.23;;;6.90;;
52208;SDS011;38507;53.132;6.394;2023-04-15T07:56:12;14.73;;;7.20;;
52208;SDS011;38507;53.132;6.394;2023-04-15T07:58:38;11.50;;;6.75;;
52208;SDS011;38507;53.132;6.394;2023-04-15T08:01:03;10.30;;;5.90;;
52208;SDS011;38507;53.132;6.394;2023-04-15T08:03:29;13.32;;;6.78;;
52208;SDS011;38507;53.132;6.394;2023-04-15T08:05:56;10.65;;;6.00;;
52208;SDS011;38507;53.132;6.394;2023-04-15T08:08:23;13.15;;;7.25;;
52208;SDS011;38507;53.132;6.394;2023-04-15T08:10:49;12.27;;;5.93;;
52208;SDS011;38507;53.132;6.394;2023-04-15T08:13:15;11.45;;;6.60;;
52208;SDS011;38507;53.132;6.394;2023-04-15T08:15:41;11.20;;;5.97;;
52208;SDS011;38507;53.132;6.394;2023-04-15T08:18:07;14.52;;;6.40;;
52208;SDS011;38507;53.132;6.394;2023-04-15T08:20:32;14.85;;;6.28;;
52208;SDS011;38507;53.132;6.394;2023-04-15T08:22:58;12.15;;;6.05;;
52208;SDS011;38507;53.132;6.394;2023-04-15T08:25:24;10.45;;;5.53;;
52208;SDS011;38507;53.132;6.394;2023-04-15T08:27:49;8.68;;;4.95;;
52208;SDS011;38507;53.132;6.394;2023-04-15T08:30:15;11.98;;;5.85;;
52208;SDS011;38507;53.132;6.394;2023-04-15T08:32:41;11.00;;;4.93;;
52208;SDS011;38507;53.132;6.394;2023-04-15T08:35:10;11.07;;;5.82;;
52208;SDS011;38507;53.132;6.394;2023-04-15T08:37:37;12.95;;;5.55;;
52208;SDS011;38507;53.132;6.394;2023-04-15T08:40:02;10.43;;;5.50;;
52208;SDS011;38507;53.132;6.394;2023-04-15T08:42:36;13.88;;;6.20;;
52208;SDS011;38507;53.132;6.394;2023-04-15T08:45:08;11.10;;;5.07;;
52208;SDS011;38507;53.132;6.394;2023-04-15T08:47:35;9.82;;;5.03;;
52208;SDS011;38507;53.132;6.394;2023-04-15T08:50:04;10.50;;;4.57;;
52208;SDS011;38507;53.132;6.394;2023-04-15T08:52:33;6.88;;;4.03;;
52208;SDS011;38507;53.132;6.394;2023-04-15T08:54:59;7.93;;;3.88;;
52208;SDS011;38507;53.132;6.394;2023-04-15T08:57:27;6.97;;;3.08;;
52208;SDS011;38507;53.132;6.394;2023-04-15T08:59:54;8.38;;;5.15;;
52208;SDS011;38507;53.132;6.394;2023-04-15T09:02:21;9.68;;;4.70;;
52208;SDS011;38507;53.132;6.394;2023-04-15T09:04:48;10.77;;;3.20;;
52208;SDS011;38507;53.132;6.394;2023-04-15T09:07:14;6.32;;;3.15;;
52208;SDS011;38507;53.132;6.394;2023-04-15T09:09:40;5.78;;;3.20;;
52208;SDS011;38507;53.132;6.394;2023-04-15T09:12:06;6.85;;;2.83;;
52208;SDS011;38507;53.132;6.394;2023-04-15T09:14:33;5.97;;;2.85;;
52208;SDS011;38507;53.132;6.394;2023-04-15T09:16:59;9.07;;;3.42;;
52208;SDS011;38507;53.132;6.394;2023-04-15T09:19:26;5.57;;;3.20;;
52208;SDS011;38507;53.132;6.394;2023-04-15T09:21:53;10.88;;;3.78;;
52208;SDS011;38507;53.132;6.394;2023-04-15T09:24:21;6.97;;;3.38;;
52208;SDS011;38507;53.132;6.394;2023-04-15T09:26:47;9.40;;;2.88;;
52208;SDS011;38507;53.132;6.394;2023-04-15T09:29:17;6.53;;;3.40;;
52208;SDS011;38507;53.132;6.394;2023-04-15T09:31:43;9.38;;;3.28;;
52208;SDS011;38507;53.132;6.394;2023-04-15T09:34:09;6.63;;;2.70;;
52208;SDS011;38507;53.132;6.394;2023-04-15T09:36:40;7.47;;;2.45;;
52208;SDS011;38507;53.132;6.394;2023-04-15T09:39:17;6.45;;;2.42;;
52208;SDS011;38507;53.132;6.394;2023-04-15T09:41:43;8.50;;;2.40;;
52208;SDS011;38507;53.132;6.394;2023-04-15T09:47:04;4.85;;;1.60;;
52208;SDS011;38507;53.132;6.394;2023-04-15T09:49:30;3.00;;;1.60;;
52208;SDS011;38507;53.132;6.394;2023-04-15T09:51:57;4.47;;;1.55;;
52208;SDS011;38507;53.132;6.394;2023-04-15T09:54:27;3.90;;;1.45;;
52208;SDS011;38507;53.132;6.394;2023-04-15T09:57:03;7.57;;;2.00;;
52208;SDS011;38507;53.132;6.394;2023-04-15T09:59:30;4.80;;;1.40;;
52208;SDS011;38507;53.132;6.394;2023-04-15T10:01:55;2.80;;;1.25;;
52208;SDS011;38507;53.132;6.394;2023-04-15T10:04:21;2.70;;;1.13;;
52208;SDS011;38507;53.132;6.394;2023-04-15T10:06:48;2.35;;;1.38;;
52208;SDS011;38507;53.132;6.394;2023-04-15T10:09:14;4.30;;;1.10;;
52208;SDS011;38507;53.132;6.394;2023-04-15T10:11:42;2.92;;;1.10;;
52208;SDS011;38507;53.132;6.394;2023-04-15T10:14:09;2.40;;;1.00;;
52208;SDS011;38507;53.132;6.394;2023-04-15T10:16:37;1.83;;;0.95;;
52208;SDS011;38507;53.132;6.394;2023-04-15T10:19:07;2.83;;;1.20;;
52208;SDS011;38507;53.132;6.394;2023-04-15T10:21:34;2.40;;;0.98;;
52208;SDS011;38507;53.132;6.394;2023-04-15T10:24:01;2.20;;;1.00;;
52208;SDS011;38507;53.132;6.394;2023-04-15T10:26:27;2.72;;;1.17;;
52208;SDS011;38507;53.132;6.394;2023-04-15T10:28:53;5.65;;;1.40;;
52208;SDS011;38507;53.132;6.394;2023-04-15T10:31:20;3.15;;;1.25;;
52208;SDS011;38507;53.132;6.394;2023-04-15T10:33:46;3.92;;;1.50;;
52208;SDS011;38507;53.132;6.394;2023-04-15T10:36:28;3.08;;;1.58;;
52208;SDS011;38507;53.132;6.394;2023-04-15T10:38:54;4.45;;;1.20;;
52208;SDS011;38507;53.132;6.394;2023-04-15T10:41:21;2.85;;;1.25;;
52208;SDS011;38507;53.132;6.394;2023-04-15T10:44:09;2.20;;;1.20;;
52208;SDS011;38507;53.132;6.394;2023-04-15T10:49:16;3.83;;;1.23;;
52208;SDS011;38507;53.132;6.394;2023-04-15T10:51:52;3.90;;;1.55;;
52208;SDS011;38507;53.132;6.394;2023-04-15T10:56:50;3.28;;;1.25;;
52208;SDS011;38507;53.132;6.394;2023-04-15T10:59:16;4.00;;;1.60;;
52208;SDS011;38507;53.132;6.394;2023-04-15T11:01:49;5.95;;;1.52;;
52208;SDS011;38507;53.132;6.394;2023-04-15T11:15:30;5.00;;;1.58;;
52208;SDS011;38507;53.132;6.394;2023-04-15T11:18:11;5.82;;;1.67;;
52208;SDS011;38507;53.132;6.394;2023-04-15T11:20:39;5.25;;;1.50;;
52208;SDS011;38507;53.132;6.394;2023-04-15T11:23:06;5.78;;;1.67;;
52208;SDS011;38507;53.132;6.394;2023-04-15T11:25:33;6.93;;;1.63;;
52208;SDS011;38507;53.132;6.394;2023-04-15T11:28:02;6.32;;;1.67;;
52208;SDS011;38507;53.132;6.394;2023-04-15T11:30:29;6.90;;;2.17;;
52208;SDS011;38507;53.132;6.394;2023-04-15T11:33:00;7.55;;;1.92;;
52208;SDS011;38507;53.132;6.394;2023-04-15T11:35:27;8.27;;;1.80;;
52208;SDS011;38507;53.132;6.394;2023-04-15T11:37:54;8.80;;;1.80;;
52208;SDS011;38507;53.132;6.394;2023-04-15T11:40:27;7.10;;;1.30;;
52208;SDS011;38507;53.132;6.394;2023-04-15T11:45:31;4.90;;;1.40;;
52208;SDS011;38507;53.132;6.394;2023-04-15T11:48:10;6.68;;;1.35;;
52208;SDS011;38507;53.132;6.394;2023-04-15T11:50:37;7.28;;;1.58;;
52208;SDS011;38507;53.132;6.394;2023-04-15T11:53:11;5.72;;;1.85;;
52208;SDS011;38507;53.132;6.394;2023-04-15T11:55:40;8.68;;;1.88;;
52208;SDS011;38507;53.132;6.394;2023-04-15T11:58:18;7.72;;;1.70;;
52208;SDS011;38507;53.132;6.394;2023-04-15T12:08:46;7.53;;;1.50;;
52208;SDS011;38507;53.132;6.394;2023-04-15T12:11:14;6.40;;;1.30;;
52208;SDS011;38507;53.132;6.394;2023-04-15T12:13:44;5.40;;;1.45;;
52208;SDS011;38507;53.132;6.394;2023-04-15T12:16:10;5.78;;;1.25;;
52208;SDS011;38507;53.132;6.394;2023-04-15T12:18:37;7.13;;;1.33;;
52208;SDS011;38507;53.132;6.394;2023-04-15T12:21:09;10.63;;;1.80;;
52208;SDS011;38507;53.132;6.394;2023-04-15T12:23:48;11.68;;;1.70;;
52208;SDS011;38507;53.132;6.394;2023-04-15T12:26:17;6.47;;;1.40;;
52208;SDS011;38507;53.132;6.394;2023-04-15T12:28:54;7.10;;;1.70;;
52208;SDS011;38507;53.132;6.394;2023-04-15T12:31:24;6.68;;;1.63;;
52208;SDS011;38507;53.132;6.394;2023-04-15T12:33:50;6.45;;;1.45;;
52208;SDS011;38507;53.132;6.394;2023-04-15T12:36:15;11.25;;;2.20;;
52208;SDS011;38507;53.132;6.394;2023-04-15T12:38:41;8.18;;;1.48;;
52208;SDS011;38507;53.132;6.394;2023-04-15T12:41:07;7.95;;;1.60;;
52208;SDS011;38507;53.132;6.394;2023-04-15T12:43:32;10.85;;;1.40;;
52208;SDS011;38507;53.132;6.394;2023-04-15T12:45:58;11.52;;;1.38;;
52208;SDS011;38507;53.132;6.394;2023-04-15T12:48:24;10.90;;;1.40;;
52208;SDS011;38507;53.132;6.394;2023-04-15T12:50:49;9.02;;;1.35;;
52208;SDS011;38507;53.132;6.394;2023-04-15T12:53:15;6.60;;;1.20;;
52208;SDS011;38507;53.132;6.394;2023-04-15T12:55:41;16.88;;;1.42;;
52208;SDS011;38507;53.132;6.394;2023-04-15T12:58:07;8.40;;;1.38;;
52208;SDS011;38507;53.132;6.394;2023-04-15T13:00:33;13.02;;;1.60;;
52208;SDS011;38507;53.132;6.394;2023-04-15T13:02:59;14.10;;;1.77;;
52208;SDS011;38507;53.132;6.394;2023-04-15T13:05:24;14.18;;;1.70;;
52208;SDS011;38507;53.132;6.394;2023-04-15T13:07:50;8.73;;;1.50;;
52208;SDS011;38507;53.132;6.394;2023-04-15T13:10:16;10.95;;;2.08;;
52208;SDS011;38507;53.132;6.394;2023-04-15T13:12:42;7.75;;;1.48;;
52208;SDS011;38507;53.132;6.394;2023-04-15T13:15:07;8.50;;;1.45;;
52208;SDS011;38507;53.132;6.394;2023-04-15T13:17:35;6.50;;;1.38;;
52208;SDS011;38507;53.132;6.394;2023-04-15T13:20:01;9.23;;;1.50;;
52208;SDS011;38507;53.132;6.394;2023-04-15T13:22:26;10.30;;;1.60;;
52208;SDS011;38507;53.132;6.394;2023-04-15T13:24:52;8.85;;;1.63;;
52208;SDS011;38507;53.132;6.394;2023-04-15T13:27:17;9.80;;;1.50;;
52208;SDS011;38507;53.132;6.394;2023-04-15T13:29:43;9.35;;;1.20;;
52208;SDS011;38507;53.132;6.394;2023-04-15T13:32:09;11.43;;;1.50;;
52208;SDS011;38507;53.132;6.394;2023-04-15T13:34:38;6.25;;;1.58;;
52208;SDS011;38507;53.132;6.394;2023-04-15T13:37:13;9.30;;;1.45;;
52208;SDS011;38507;53.132;6.394;2023-04-15T13:39:38;6.65;;;1.60;;
52208;SDS011;38507;53.132;6.394;2023-04-15T13:42:04;12.07;;;1.48;;
52208;SDS011;38507;53.132;6.394;2023-04-15T13:44:30;12.80;;;1.77;;
52208;SDS011;38507;53.132;6.394;2023-04-15T13:46:55;12.15;;;2.65;;
52208;SDS011;38507;53.132;6.394;2023-04-15T13:49:21;15.35;;;2.20;;
52208;SDS011;38507;53.132;6.394;2023-04-15T13:51:47;9.82;;;1.63;;
52208;SDS011;38507;53.132;6.394;2023-04-15T13:54:12;7.15;;;1.42;;
52208;SDS011;38507;53.132;6.394;2023-04-15T13:56:38;11.15;;;1.60;;
52208;SDS011;38507;53.132;6.394;2023-04-15T13:59:03;10.02;;;1.45;;
52208;SDS011;38507;53.132;6.394;2023-04-15T14:01:30;6.13;;;1.40;;
52208;SDS011;38507;53.132;6.394;2023-04-15T14:03:56;8.38;;;1.55;;
52208;SDS011;38507;53.132;6.394;2023-04-15T14:06:21;8.93;;;1.80;;
52208;SDS011;38507;53.132;6.394;2023-04-15T14:08:47;8.13;;;1.95;;
52208;SDS011;38507;53.132;6.394;2023-04-15T14:11:13;8.25;;;1.42;;
52208;SDS011;38507;53.132;6.394;2023-04-15T14:13:39;5.97;;;1.10;;
52208;SDS011;38507;53.132;6.394;2023-04-15T14:16:05;11.45;;;1.67;;
52208;SDS011;38507;53.132;6.394;2023-04-15T14:18:31;10.10;;;1.50;;
52208;SDS011;38507;53.132;6.394;2023-04-15T14:20:57;8.80;;;1.40;;
52208;SDS011;38507;53.132;6.394;2023-04-15T14:23:23;15.23;;;1.90;;
52208;SDS011;38507;53.132;6.394;2023-04-15T14:25:49;7.57;;;1.30;;
52208;SDS011;38507;53.132;6.394;2023-04-15T14:28:15;11.23;;;1.88;;
52208;SDS011;38507;53.132;6.394;2023-04-15T14:30:41;9.95;;;2.20;;
52208;SDS011;38507;53.132;6.394;2023-04-15T14:33:06;9.50;;;1.35;;
52208;SDS011;38507;53.132;6.394;2023-04-15T14:35:32;10.23;;;1.50;;
52208;SDS011;38507;53.132;6.394;2023-04-15T14:37:58;8.45;;;1.70;;
52208;SDS011;38507;53.132;6.394;2023-04-15T14:40:24;15.15;;;1.55;;
52208;SDS011;38507;53.132;6.394;2023-04-15T14:42:49;14.15;;;2.22;;
52208;SDS011;38507;53.132;6.394;2023-04-15T14:45:15;10.02;;;1.73;;
52208;SDS011;38507;53.132;6.394;2023-04-15T14:47:41;13.13;;;2.33;;
52208;SDS011;38507;53.132;6.394;2023-04-15T14:50:07;17.63;;;1.98;;
52208;SDS011;38507;53.132;6.394;2023-04-15T14:52:33;12.13;;;1.90;;
52208;SDS011;38507;53.132;6.394;2023-04-15T14:55:06;10.45;;;1.73;;
52208;SDS011;38507;53.132;6.394;2023-04-15T14:57:36;12.15;;;2.00;;
52208;SDS011;38507;53.132;6.394;2023-04-15T15:00:03;12.00;;;2.42;;
52208;SDS011;38507;53.132;6.394;2023-04-15T15:02:29;12.15;;;1.63;;